Flight Track Log - Related Links

Times and Time Zones

All times are in EST time to prevent confusion due to time zone crossing. See the SWA127 flight status page for this flight to view local times or setup timezone preferences in your user account.

Time Position Orientation Groundspeed Altitude Reporting Facility
EST Latitude Longitude Course Direction KTS MPH feet Rate Location/Type
Fri 07:59:31 AM 38.1333 -85.7333 157° South 168 193 2,500  Level Louisville TRACON
Fri 08:00:41 AM 38.0814 -85.7053 157° South 241 277 5,400 3,023 Climbing Indianapolis Center
Fri 08:01:42 AM 38.0756 -85.6042 94° East 295 339 9,100 3,707 Climbing Indianapolis Center
Fri 08:02:44 AM 38.0728 -85.4850 92° East 338 389 13,000 3,659 Climbing Indianapolis Center
Fri 08:03:45 AM 38.0728 -85.3489 90° East 380 437 16,600 3,317 Climbing Indianapolis Center
Fri 08:04:47 AM 38.0572 -85.1844 97° East 422 486 19,800 3,073 Climbing Indianapolis Center
Fri 08:05:48 AM 38.0372 -85.0292 99° East 445 512 22,900 2,311 Climbing Indianapolis Center
Fri 08:06:49 AM 38.0167 -84.8567 99° East 494 568 24,500 2,293 Climbing Indianapolis Center
Fri 08:07:51 AM 38.0192 -84.6811 89° East 499 574 27,600 2,634 Climbing Indianapolis Center
Fri 08:08:52 AM 38.0411 -84.5000 81° East 516 594 29,900 2,488 Climbing Indianapolis Center
Fri 08:09:54 AM 38.0683 -84.2822 81° East 529 609 32,700 2,537 Climbing Indianapolis Center
Fri 08:10:55 AM 38.0919 -84.0969 81° East 532 612 35,100 2,098 Climbing Indianapolis Center
Fri 08:11:57 AM 38.1136 -83.9117 81° East 529 609 37,000 927 Climbing Indianapolis Center
Fri 08:12:58 AM 38.1361 -83.7239 81° East 532 612 37,000  Level Indianapolis Center
Fri 08:13:59 AM 38.1597 -83.5339 81° East 538 619 37,000  Level Indianapolis Center
Fri 08:15:01 AM 38.1797 -83.3422 82° East 543 625 37,000  Level Indianapolis Center
Fri 08:16:02 AM 38.1883 -83.1483 87° East 544 626 37,000  Level Indianapolis Center
Fri 08:17:04 AM 38.1978 -82.9550 86° East 544 626 37,000  Level Indianapolis Center
Fri 08:18:05 AM 38.2072 -82.7625 86° East 544 626 37,000  Level Indianapolis Center
Fri 08:19:06 AM 38.2169 -82.5392 87° East 542 624 37,000  Level Indianapolis Center
Fri 08:20:08 AM 38.2242 -82.3783 87° East 544 626 37,000  Level Indianapolis Center
Fri 08:21:09 AM 38.2342 -82.1486 87° East 545 627 37,000  Level Indianapolis Center
Fri 08:22:11 AM 38.2422 -81.9594 87° East 542 624 37,000  Level Indianapolis Center
Fri 08:23:12 AM 38.2508 -81.7706 87° East 540 621 37,000  Level Indianapolis Center
Fri 08:24:13 AM 38.2578 -81.5811 87° East 541 623 37,000  Level Indianapolis Center
Fri 08:25:15 AM 38.2639 -81.3928 88° East 540 621 37,000  Level Indianapolis Center
Fri 08:26:16 AM 38.2703 -81.2039 87° East 541 623 37,000  Level Indianapolis Center
Fri 08:27:18 AM 38.2767 -81.0150 87° East 538 619 37,000  Level Indianapolis Center
Fri 08:28:19 AM 38.2836 -80.7889 88° East 537 618 37,000  Level Indianapolis Center
Fri 08:29:20 AM 38.2900 -80.6011 87° East 535 616 37,000  Level Indianapolis Center
Fri 08:30:22 AM 38.2725 -80.4156 97° East 533 613 37,000  Level Indianapolis Center
Fri 08:31:23 AM 38.2239 -80.2439 110° East 521 600 37,000  Level Indianapolis Center
Fri 08:32:25 AM 38.1856 -80.0714 106° East 512 589 37,000 -390 Level Indianapolis Center
Fri 08:33:26 AM 38.2142 -79.8922 78° East 523 602 36,200 -836 Descending Indianapolis Center
Fri 08:34:27 AM 38.2533 -79.7178 74° East 524 603 35,300 -1,024 Descending Indianapolis Center
Fri 08:35:29 AM 38.2986 -79.5056 75° East 528 608 34,100 -1,024 Descending Indianapolis Center
Fri 08:36:30 AM 38.3364 -79.3289 75° East 527 606 33,200 -489 Descending Indianapolis Center
Fri 08:37:44 AM 38.3839 -79.1278 73° East 531 611 33,000 -448 Descending Washington Center
Fri 08:38:44 AM 38.4225 -78.9469 75° East 531 611 32,200 -966 Descending Washington Center
Fri 08:39:42 AM 38.4636 -78.7419 76° East 531 611 31,100 -1,563 Descending Washington Center
Fri 08:40:43 AM 38.4992 -78.5656 76° East 526 605 29,100 -2,115 Descending Washington Center
Fri 08:41:44 AM 38.5347 -78.3944 75° East 515 593 26,800 -2,420 Descending Washington Center
Fri 08:42:42 AM 38.5678 -78.2258 76° East 502 578 24,300 -2,218 Descending Washington Center
Fri 08:43:43 AM 38.5956 -78.0914 75° East 492 566 22,400 -2,410 Descending Washington Center
Fri 08:44:44 AM 38.6350 -77.8958 75° East 479 551 19,400 -1,736 Descending Washington Center
Fri 08:45:44 AM 38.6483 -77.7394 84° East 461 531 18,900 -397 Descending Washington Center
Fri 08:46:45 AM 38.6569 -77.5989 85° East 429 494 18,600 -843 Descending Washington Center
Fri 08:47:45 AM 38.6631 -77.4714 86° East 411 473 17,200 -1,322 Descending Washington Center
Fri 08:48:43 AM 38.6736 -77.3361 84° East 391 450 16,000 -1,361 Descending Washington Center
Fri 08:49:44 AM 38.6794 -77.2006 87° East 380 437 14,500 -1,377 Descending Washington Center
Fri 08:50:45 AM 38.6667 -77.0753 97° East 370 426 13,200 -1,261 Descending Washington Center
Fri 08:51:43 AM 38.6408 -76.9578 106° East 353 406 12,000 -1,361 Descending Washington Center
Fri 08:52:44 AM 38.6297 -76.8381 97° East 342 394 10,500 -1,337 Descending Washington Center
Fri 08:54:56 AM 38.7500 -76.6333 53° Northeast 320 368 7,700 -1,344 Descending Potomac TRACON
Fri 08:55:56 AM 38.8000 -76.5333 57° Northeast 317 365 6,200 -1,105 Descending Potomac TRACON
Fri 08:56:50 AM 38.8667 -76.5167 11° North 283 326 5,600 -895 Descending Potomac TRACON
Fri 08:57:50 AM 38.9500 -76.5000 North 274 315 4,500 -950 Descending Potomac TRACON
Fri 08:58:50 AM 39.0000 -76.5167 345° North 206 237 3,700 -650 Descending Potomac TRACON
Fri 08:59:50 AM 39.0500 -76.5500 333° Northwest 153 176 3,200 -678 Descending Potomac TRACON
Fri 09:00:45 AM 39.0667 -76.5833 303° West 148 170 2,400 -783 Descending Potomac TRACON
Fri 09:01:45 AM 39.1000 -76.6000 339° North 130 150 1,700 -700 Descending Potomac TRACON
Fri 09:02:45 AM 39.1333 -76.6333 322° Northwest 116 133 1,000 -684 Descending Potomac TRACON
Fri 09:03:39 AM 39.1500 -76.6500 322° Northwest 121 139 400 -667 Descending Potomac TRACON
Fri 09:05:00 AM 39.1667 -76.6667 339° North  Level FlightAware Approximate
Fri 09:12:00 AM 39.1754 -76.6683 339° North  Level Estimated

Login

Don't have an account? Register now (free) for customized features, flight alerts, and more!